Time;durP1;ratioP1;P1;durP2;ratioP2;P2;SDS_P1;SDS_P2;PMS_P1;PMS_P2;Temp;Humidity;BMP_temperature;BMP_pressure;BME280_temperature;BME280_humidity;BME280_pressure;Samples;Min_cycle;Max_cycle;Signal;HPM_P1;HPM_P2
2023/06/28 00:01:12;;;;;;;6.80;3.92;;;14.30;99.90;;;;;;6275254;22;20396;-35
2023/06/28 00:03:38;;;;;;;7.60;3.83;;;14.30;99.90;;;;;;6303579;22;20082;-37
2023/06/28 00:06:04;;;;;;;6.18;3.72;;;14.30;99.90;;;;;;6303243;22;20019;-36
2023/06/28 00:08:29;;;;;;;7.60;3.65;;;14.30;99.90;;;;;;6302791;22;20029;-36
2023/06/28 00:10:57;;;;;;;7.82;4.15;;;14.30;99.90;;;;;;6274994;22;20015;-35
2023/06/28 00:13:23;;;;;;;5.55;3.55;;;14.30;99.90;;;;;;6302874;22;20007;-38
2023/06/28 00:15:49;;;;;;;6.80;3.88;;;14.30;99.90;;;;;;6275318;22;20441;-35
2023/06/28 00:18:14;;;;;;;6.50;3.95;;;14.30;99.90;;;;;;6303928;22;20022;-37
2023/06/28 00:20:40;;;;;;;6.20;3.85;;;14.30;99.90;;;;;;6304728;22;20011;-33
2023/06/28 00:23:07;;;;;;;7.85;4.18;;;14.20;99.90;;;;;;6304490;22;20066;-34
2023/06/28 00:25:32;;;;;;;5.40;3.50;;;14.20;99.90;;;;;;6302463;22;20334;-33
2023/06/28 00:27:58;;;;;;;6.13;3.80;;;14.20;99.90;;;;;;6303907;22;20007;-33
2023/06/28 00:30:23;;;;;;;12.55;4.50;;;14.20;99.90;;;;;;6302313;22;20426;-38
2023/06/28 00:32:49;;;;;;;7.07;4.28;;;14.20;99.90;;;;;;6301340;22;20012;-33
2023/06/28 00:35:15;;;;;;;6.90;3.85;;;14.20;99.90;;;;;;6304007;22;20399;-33
2023/06/28 00:37:41;;;;;;;9.52;4.60;;;14.20;99.90;;;;;;6302866;22;20018;-35
2023/06/28 00:40:08;;;;;;;6.40;4.65;;;14.20;99.90;;;;;;6302959;22;20039;-36
2023/06/28 00:42:34;;;;;;;9.02;4.53;;;14.20;99.90;;;;;;6301329;22;20056;-38
2023/06/28 00:45:00;;;;;;;7.40;4.90;;;14.20;99.90;;;;;;6302822;22;20103;-33
2023/06/28 00:47:28;;;;;;;7.95;4.97;;;14.20;99.90;;;;;;6275936;22;20007;-33
2023/06/28 00:49:55;;;;;;;6.43;4.50;;;14.20;99.90;;;;;;6303373;22;20007;-33
2023/06/28 00:52:21;;;;;;;6.13;4.13;;;14.20;99.90;;;;;;6302076;22;20082;-33
2023/06/28 00:54:48;;;;;;;7.70;4.13;;;14.20;99.90;;;;;;6303065;22;20007;-33
2023/06/28 00:57:14;;;;;;;7.80;4.82;;;14.20;99.90;;;;;;6303319;22;20023;-33
2023/06/28 00:59:40;;;;;;;9.20;4.57;;;14.20;99.90;;;;;;6302614;22;20004;-33
2023/06/28 01:02:07;;;;;;;6.55;4.63;;;14.10;99.90;;;;;;6302033;22;20018;-32
2023/06/28 01:04:36;;;;;;;6.43;4.40;;;14.10;99.90;;;;;;6302917;22;20323;-34
2023/06/28 01:07:03;;;;;;;8.25;4.90;;;14.10;99.90;;;;;;6303107;22;20334;-32
2023/06/28 01:09:30;;;;;;;9.27;4.68;;;14.10;99.90;;;;;;6275301;22;20466;-36
2023/06/28 01:11:57;;;;;;;8.77;4.97;;;14.10;99.90;;;;;;6301727;22;20342;-32
2023/06/28 01:14:24;;;;;;;7.90;4.57;;;14.10;99.90;;;;;;6303506;22;20011;-34
2023/06/28 01:16:54;;;;;;;10.45;4.45;;;14.00;99.90;;;;;;6301960;22;20073;-33
2023/06/28 01:19:25;;;;;;;8.50;4.40;;;14.00;99.90;;;;;;6303442;22;20011;-33
2023/06/28 01:21:55;;;;;;;6.82;4.70;;;14.10;99.90;;;;;;6301945;22;20133;-33
2023/06/28 01:24:23;;;;;;;9.55;4.30;;;14.10;99.90;;;;;;6302418;22;20015;-33
2023/06/28 01:26:52;;;;;;;9.57;4.60;;;14.10;99.90;;;;;;6302110;22;20015;-33
2023/06/28 01:29:24;;;;;;;8.13;4.47;;;14.00;99.90;;;;;;6303519;22;20070;-38
2023/06/28 01:31:56;;;;;;;10.20;5.25;;;14.00;99.90;;;;;;6301447;22;20090;-34
2023/06/28 01:34:24;;;;;;;7.32;4.78;;;14.00;99.90;;;;;;6275604;22;20380;-34
2023/06/28 01:36:52;;;;;;;7.15;5.07;;;14.00;99.90;;;;;;6302556;22;20018;-34
2023/06/28 01:39:18;;;;;;;5.82;4.60;;;14.00;99.90;;;;;;6303165;22;20082;-37
2023/06/28 01:41:45;;;;;;;8.18;5.18;;;14.00;99.90;;;;;;6301789;22;20346;-34
2023/06/28 01:44:11;;;;;;;7.05;4.50;;;14.00;99.90;;;;;;6302223;22;20069;-33
2023/06/28 01:46:38;;;;;;;7.15;4.50;;;13.90;99.90;;;;;;6303185;22;20019;-34
2023/06/28 01:49:04;;;;;;;8.05;5.13;;;13.90;99.90;;;;;;6274870;22;20018;-33
2023/06/28 01:51:30;;;;;;;8.00;5.43;;;13.90;99.90;;;;;;6302286;22;20311;-36
2023/06/28 01:53:56;;;;;;;8.65;5.40;;;13.80;99.90;;;;;;6301874;22;20007;-36
2023/06/28 01:56:22;;;;;;;6.20;4.28;;;13.80;99.90;;;;;;6302897;22;20389;-39
2023/06/28 01:58:48;;;;;;;8.90;5.13;;;13.80;99.90;;;;;;6301693;22;20015;-33
2023/06/28 02:01:13;;;;;;;8.40;5.10;;;13.80;99.90;;;;;;6302380;22;20514;-33
2023/06/28 02:03:39;;;;;;;9.43;5.40;;;13.80;99.90;;;;;;6302514;22;20011;-33
2023/06/28 02:06:05;;;;;;;7.80;5.18;;;13.80;99.90;;;;;;6301828;22;20015;-33
2023/06/28 02:08:30;;;;;;;8.75;5.97;;;13.80;99.90;;;;;;6302385;22;20015;-34
2023/06/28 02:10:56;;;;;;;9.10;5.93;;;13.70;99.90;;;;;;6301440;22;20007;-34
2023/06/28 02:13:21;;;;;;;8.70;6.13;;;13.70;99.90;;;;;;6302679;22;20014;-34
2023/06/28 02:20:54;;;;;;;8.85;6.57;;;13.70;99.90;;;;;;6270361;22;20769;-42
2023/06/28 02:23:21;;;;;;;12.35;6.65;;;13.70;99.90;;;;;;6270448;22;20012;-35
2023/06/28 02:25:48;;;;;;;9.88;6.38;;;13.70;99.90;;;;;;6271225;22;20062;-41
2023/06/28 02:28:13;;;;;;;10.73;6.07;;;13.70;99.90;;;;;;6271344;22;20015;-34
2023/06/28 02:30:39;;;;;;;11.38;6.97;;;13.80;99.90;;;;;;6270925;22;20335;-37
2023/06/28 02:33:05;;;;;;;9.95;6.80;;;13.80;99.90;;;;;;6270506;22;20073;-34
2023/06/28 02:35:30;;;;;;;10.60;7.03;;;13.80;99.90;;;;;;6270980;22;20474;-40
2023/06/28 02:37:56;;;;;;;7.60;6.40;;;13.80;99.90;;;;;;6270618;22;20447;-34
2023/06/28 02:40:25;;;;;;;12.13;7.32;;;13.90;99.90;;;;;;6270907;22;20018;-43
2023/06/28 02:42:51;;;;;;;9.40;7.10;;;13.90;99.90;;;;;;6269919;22;20094;-36
2023/06/28 02:45:16;;;;;;;9.10;7.20;;;13.90;99.90;;;;;;6271076;22;20018;-35
2023/06/28 02:47:42;;;;;;;8.02;7.07;;;13.90;99.90;;;;;;6243043;22;20443;-36
2023/06/28 02:50:08;;;;;;;9.77;6.85;;;14.00;99.90;;;;;;6270993;22;20008;-37
2023/06/28 02:52:34;;;;;;;9.25;6.43;;;13.90;99.90;;;;;;6242667;22;20102;-35
2023/06/28 02:55:00;;;;;;;9.85;7.35;;;13.90;99.90;;;;;;6271056;22;20035;-37
2023/06/28 02:57:26;;;;;;;8.68;7.25;;;13.90;99.90;;;;;;6270126;22;20469;-43
2023/06/28 02:59:52;;;;;;;10.23;6.72;;;14.00;99.90;;;;;;6270973;22;20004;-42
2023/06/28 03:02:17;;;;;;;13.70;7.35;;;14.00;99.90;;;;;;6269743;22;20382;-41
2023/06/28 03:04:45;;;;;;;11.10;7.20;;;14.00;99.90;;;;;;6239908;23;20031;-36
2023/06/28 03:07:17;;;;;;;10.70;7.00;;;14.00;99.90;;;;;;6239840;23;20012;-34
2023/06/28 03:09:43;;;;;;;10.27;6.43;;;14.00;99.90;;;;;;6240060;23;20013;-34
2023/06/28 03:12:10;;;;;;;12.32;7.07;;;14.00;99.90;;;;;;6239580;23;20336;-34
2023/06/28 03:14:36;;;;;;;12.68;7.70;;;14.10;99.90;;;;;;6212853;23;20012;-42
2023/06/28 03:17:02;;;;;;;8.93;6.63;;;14.10;99.90;;;;;;6239968;23;20313;-39
2023/06/28 03:19:28;;;;;;;9.38;6.97;;;14.20;99.90;;;;;;6239912;23;20177;-36
2023/06/28 03:21:53;;;;;;;9.50;6.72;;;14.20;99.90;;;;;;6240517;23;20024;-35
2023/06/28 03:24:19;;;;;;;8.88;6.70;;;14.30;99.90;;;;;;6241441;23;20012;-37
2023/06/28 03:26:44;;;;;;;9.20;6.45;;;14.30;99.90;;;;;;6241338;23;20012;-35
2023/06/28 03:29:10;;;;;;;10.95;7.35;;;14.30;99.90;;;;;;6214690;23;20498;-32
2023/06/28 03:31:36;;;;;;;8.05;6.55;;;14.30;99.90;;;;;;6239969;23;20047;-34
2023/06/28 03:34:02;;;;;;;9.52;7.35;;;14.40;99.90;;;;;;6241231;23;20005;-32
2023/06/28 03:36:29;;;;;;;8.20;6.95;;;14.40;99.90;;;;;;6240745;23;20016;-34
2023/06/28 03:38:55;;;;;;;9.73;7.60;;;14.40;99.90;;;;;;6241076;23;20320;-32
2023/06/28 03:41:20;;;;;;;10.32;7.75;;;14.40;99.90;;;;;;6240664;23;20066;-33
2023/06/28 03:43:47;;;;;;;10.35;7.57;;;14.40;99.90;;;;;;6240526;23;20477;-32
2023/06/28 03:46:12;;;;;;;12.05;7.95;;;14.50;99.90;;;;;;6240124;23;20016;-32
2023/06/28 03:48:38;;;;;;;8.73;7.00;;;14.50;99.90;;;;;;6240677;23;20091;-32
2023/06/28 03:51:04;;;;;;;9.18;7.47;;;14.50;99.90;;;;;;6215149;23;20042;-32
2023/06/28 03:53:29;;;;;;;9.18;6.68;;;14.50;99.90;;;;;;6242348;23;20313;-34
2023/06/28 03:55:55;;;;;;;13.30;7.72;;;14.50;99.90;;;;;;6242899;23;20023;-35
2023/06/28 03:58:20;;;;;;;10.80;7.63;;;14.60;99.90;;;;;;6242156;23;20355;-32
2023/06/28 04:00:48;;;;;;;10.15;8.38;;;14.60;99.90;;;;;;6242123;23;20016;-31
2023/06/28 04:03:15;;;;;;;9.40;8.40;;;14.60;99.90;;;;;;6242272;23;20008;-32
2023/06/28 04:05:44;;;;;;;10.13;7.47;;;14.60;99.90;;;;;;6241841;23;20020;-31
2023/06/28 04:08:09;;;;;;;11.70;8.07;;;14.60;99.90;;;;;;6242038;23;20396;-31
2023/06/28 04:10:37;;;;;;;9.52;7.38;;;14.70;99.90;;;;;;6242154;23;20018;-34
2023/06/28 04:13:04;;;;;;;9.88;7.82;;;14.70;99.90;;;;;;6240581;23;20005;-44
2023/06/28 04:15:29;;;;;;;12.43;7.25;;;14.70;99.90;;;;;;6241592;23;20066;-43
2023/06/28 04:17:55;;;;;;;8.98;7.97;;;14.70;99.90;;;;;;6240977;23;20016;-34
2023/06/28 04:20:21;;;;;;;11.98;8.30;;;14.80;99.90;;;;;;6241995;23;20012;-38
2023/06/28 04:22:47;;;;;;;9.93;7.88;;;14.80;99.90;;;;;;6240784;23;20447;-34
2023/06/28 04:25:12;;;;;;;9.48;7.82;;;14.80;99.90;;;;;;6241326;23;20061;-35
2023/06/28 04:27:38;;;;;;;9.32;6.78;;;14.80;99.90;;;;;;6240804;23;20094;-40
2023/06/28 04:30:04;;;;;;;13.55;8.25;;;14.80;99.90;;;;;;6240952;23;20439;-37
2023/06/28 04:32:30;;;;;;;9.18;7.35;;;14.90;99.90;;;;;;6240572;23;20008;-43
2023/06/28 04:34:58;;;;;;;8.80;7.43;;;14.90;99.90;;;;;;6240700;23;20042;-35
2023/06/28 04:37:27;;;;;;;10.88;7.22;;;14.90;99.90;;;;;;6241574;23;20012;-36
2023/06/28 04:40:03;;;;;;;9.35;6.70;;;14.90;99.90;;;;;;6240738;23;20427;-35
2023/06/28 04:42:29;;;;;;;10.20;7.05;;;15.00;99.90;;;;;;6239876;23;20040;-37
2023/06/28 04:44:59;;;;;;;10.20;6.63;;;15.00;99.90;;;;;;6241165;23;20020;-36
2023/06/28 04:47:28;;;;;;;10.88;7.93;;;15.00;99.90;;;;;;6241039;23;20101;-38
2023/06/28 04:49:56;;;;;;;9.20;7.57;;;15.00;99.90;;;;;;6241360;23;20016;-38
2023/06/28 04:52:22;;;;;;;9.93;7.32;;;15.00;99.90;;;;;;6237751;23;20008;-36
2023/06/28 04:54:49;;;;;;;8.77;7.18;;;15.10;99.90;;;;;;6238867;23;20517;-38
2023/06/28 04:57:15;;;;;;;13.65;7.20;;;15.10;99.90;;;;;;6240459;23;20016;-34
2023/06/28 04:59:41;;;;;;;9.18;6.85;;;15.10;99.90;;;;;;6240986;23;20008;-37
2023/06/28 05:02:09;;;;;;;10.48;7.80;;;15.10;99.90;;;;;;6239895;23;20364;-38
2023/06/28 05:04:36;;;;;;;9.45;7.60;;;15.10;99.90;;;;;;6241358;23;20012;-36
2023/06/28 05:07:04;;;;;;;10.38;7.57;;;15.10;99.90;;;;;;6240703;23;20027;-36
2023/06/28 05:09:34;;;;;;;9.70;7.20;;;15.10;99.90;;;;;;6241015;23;20011;-37
2023/06/28 05:12:01;;;;;;;7.85;7.07;;;15.10;99.90;;;;;;6239919;23;20062;-39
2023/06/28 05:14:29;;;;;;;8.93;6.90;;;15.20;99.90;;;;;;6240871;23;20317;-36
2023/06/28 05:16:55;;;;;;;7.85;6.78;;;15.20;99.90;;;;;;6238669;23;20019;-37
2023/06/28 05:19:24;;;;;;;7.68;6.32;;;15.20;99.90;;;;;;6238726;23;20574;-36
2023/06/28 05:21:51;;;;;;;8.75;6.97;;;15.30;99.90;;;;;;6238427;23;20412;-37
2023/06/28 05:24:18;;;;;;;8.27;6.97;;;15.30;99.90;;;;;;6240106;23;20016;-38
2023/06/28 05:26:44;;;;;;;11.50;7.15;;;15.30;99.90;;;;;;6238833;23;20020;-36
2023/06/28 05:29:10;;;;;;;9.88;6.93;;;15.40;99.90;;;;;;6240657;23;20031;-35
2023/06/28 05:31:42;;;;;;;8.90;6.15;;;15.40;99.90;;;;;;6212349;23;20020;-35
2023/06/28 05:34:07;;;;;;;8.13;5.78;;;15.50;99.90;;;;;;6239136;23;20443;-34
2023/06/28 05:36:34;;;;;;;9.02;5.53;;;15.50;99.90;;;;;;6238959;23;20050;-37
2023/06/28 05:39:00;;;;;;;5.93;4.85;;;15.50;99.90;;;;;;6238419;23;20339;-37
2023/06/28 05:41:26;;;;;;;7.68;5.90;;;15.60;99.90;;;;;;6239526;23;20019;-37
2023/06/28 05:43:53;;;;;;;6.45;4.97;;;15.60;99.90;;;;;;6212723;23;20424;-39
2023/06/28 05:46:18;;;;;;;5.20;4.63;;;15.70;99.90;;;;;;6239694;23;20012;-36
2023/06/28 05:48:46;;;;;;;6.50;4.53;;;15.70;99.90;;;;;;6238377;23;20117;-35
2023/06/28 05:51:13;;;;;;;6.60;4.47;;;15.70;99.90;;;;;;6235735;23;20280;-37
2023/06/28 05:53:40;;;;;;;6.80;4.32;;;15.70;99.90;;;;;;6232458;23;20062;-38
2023/06/28 05:56:09;;;;;;;5.20;3.92;;;15.80;99.90;;;;;;6232480;23;20012;-35
2023/06/28 05:58:34;;;;;;;5.00;3.83;;;15.80;99.90;;;;;;6235799;23;20030;-37
2023/06/28 06:01:00;;;;;;;4.80;3.42;;;15.80;99.90;;;;;;6235950;23;20012;-35
2023/06/28 06:03:26;;;;;;;5.70;3.65;;;15.90;99.90;;;;;;6236874;23;20018;-33
2023/06/28 06:05:57;;;;;;;6.28;3.70;;;15.90;99.90;;;;;;6210251;23;20070;-37
2023/06/28 06:08:23;;;;;;;4.70;3.70;;;16.10;99.90;;;;;;6241264;23;20378;-37
2023/06/28 06:10:50;;;;;;;4.13;3.53;;;16.20;99.90;;;;;;6213745;23;20020;-37
2023/06/28 06:13:25;;;;;;;3.65;3.35;;;16.20;99.90;;;;;;6240108;23;20016;-39
2023/06/28 06:15:53;;;;;;;5.90;4.07;;;16.30;99.90;;;;;;6241145;23;20019;-40
2023/06/28 06:18:19;;;;;;;5.85;3.90;;;16.40;99.90;;;;;;6240976;23;20087;-36
2023/06/28 06:20:44;;;;;;;5.20;4.20;;;16.50;99.90;;;;;;6239015;23;20019;-40
2023/06/28 06:23:10;;;;;;;8.48;4.40;;;16.50;99.90;;;;;;6240605;23;20420;-39
2023/06/28 06:25:36;;;;;;;5.68;4.80;;;16.50;99.90;;;;;;6241087;23;20012;-34
2023/06/28 06:28:01;;;;;;;5.35;4.50;;;16.50;99.90;;;;;;6240493;23;20444;-38
2023/06/28 06:30:28;;;;;;;8.18;5.10;;;16.60;99.90;;;;;;6213834;23;20091;-36
2023/06/28 06:32:57;;;;;;;8.20;4.90;;;16.60;99.90;;;;;;6239844;23;20023;-39
2023/06/28 06:35:25;;;;;;;8.65;5.18;;;16.60;99.90;;;;;;6214480;23;20012;-39
2023/06/28 06:37:55;;;;;;;6.00;5.00;;;16.60;99.90;;;;;;6241129;23;20338;-39
2023/06/28 06:40:21;;;;;;;6.32;4.97;;;16.50;99.90;;;;;;6241230;23;20012;-38
2023/06/28 06:42:47;;;;;;;7.68;5.07;;;16.50;99.90;;;;;;6240379;23;20347;-38
2023/06/28 06:45:17;;;;;;;10.73;5.80;;;16.60;99.90;;;;;;6240418;23;20015;-40
2023/06/28 06:47:44;;;;;;;7.93;5.50;;;16.60;99.90;;;;;;6241049;23;20516;-40
2023/06/28 06:50:10;;;;;;;20.83;6.30;;;16.50;99.90;;;;;;6241386;23;20038;-35
2023/06/28 06:52:37;;;;;;;10.00;6.00;;;16.60;99.90;;;;;;6240464;23;20012;-36
2023/06/28 06:55:04;;;;;;;12.20;6.55;;;16.60;99.90;;;;;;6241481;23;20008;-37
2023/06/28 06:57:30;;;;;;;6.90;5.43;;;16.60;99.90;;;;;;6241019;23;20008;-38
2023/06/28 06:59:55;;;;;;;12.15;6.82;;;16.60;99.90;;;;;;6240814;23;20134;-36
2023/06/28 07:02:24;;;;;;;18.60;7.53;;;16.70;99.90;;;;;;6241060;23;20212;-36
2023/06/28 07:04:50;;;;;;;9.10;5.80;;;16.70;99.90;;;;;;6241615;23;20324;-35
2023/06/28 07:07:15;;;;;;;22.33;7.82;;;16.70;99.90;;;;;;6241274;23;20020;-37
2023/06/28 07:09:41;;;;;;;10.57;6.10;;;16.80;99.90;;;;;;6241618;23;20376;-41
2023/06/28 07:12:08;;;;;;;15.55;6.45;;;16.80;99.90;;;;;;6240418;23;20018;-39
2023/06/28 07:14:33;;;;;;;11.70;6.25;;;16.80;99.90;;;;;;6240723;23;20008;-36
2023/06/28 07:16:59;;;;;;;7.95;5.82;;;16.90;99.90;;;;;;6241037;23;20062;-38
2023/06/28 07:19:25;;;;;;;10.93;5.65;;;17.00;99.90;;;;;;6240805;23;20343;-40
2023/06/28 07:21:50;;;;;;;9.98;6.43;;;17.00;99.90;;;;;;6239847;23;20126;-36
2023/06/28 07:24:16;;;;;;;11.73;6.35;;;17.00;99.90;;;;;;6242581;23;20058;-41
2023/06/28 07:26:42;;;;;;;12.25;6.50;;;17.10;99.90;;;;;;6242425;23;20261;-39
2023/06/28 07:29:07;;;;;;;7.40;5.65;;;17.10;99.90;;;;;;6242972;23;20019;-40
2023/06/28 07:31:33;;;;;;;13.95;6.95;;;17.00;99.90;;;;;;6242202;23;20050;-36
2023/06/28 07:34:04;;;;;;;8.38;6.13;;;17.00;99.90;;;;;;6243426;23;20466;-38
2023/06/28 07:36:31;;;;;;;12.45;6.78;;;17.00;99.90;;;;;;6242639;23;20012;-38
2023/06/28 07:38:57;;;;;;;10.38;6.75;;;16.90;99.90;;;;;;6243351;23;20019;-38
2023/06/28 07:41:23;;;;;;;9.13;6.25;;;16.90;99.90;;;;;;6242490;23;20026;-35
2023/06/28 07:43:49;;;;;;;11.02;6.90;;;17.00;99.90;;;;;;6241702;23;20047;-37
2023/06/28 07:46:16;;;;;;;10.75;6.38;;;17.00;99.90;;;;;;6242947;23;20024;-33
2023/06/28 07:48:41;;;;;;;10.77;6.32;;;16.90;99.90;;;;;;6241266;23;20066;-37
2023/06/28 07:51:07;;;;;;;7.45;6.18;;;16.90;99.90;;;;;;6241586;23;20012;-34
2023/06/28 07:53:33;;;;;;;10.98;6.35;;;17.00;99.90;;;;;;6242836;23;20011;-36
2023/06/28 07:55:59;;;;;;;11.38;6.63;;;17.00;99.90;;;;;;6242243;23;20459;-36
2023/06/28 07:58:25;;;;;;;10.98;6.47;;;17.10;99.90;;;;;;6242565;23;20016;-36
2023/06/28 08:00:51;;;;;;;8.07;5.95;;;17.20;99.90;;;;;;6242017;23;20189;-36
2023/06/28 08:03:17;;;;;;;9.35;7.07;;;17.20;99.90;;;;;;6242959;23;20641;-35
2023/06/28 08:05:44;;;;;;;11.95;6.85;;;17.20;99.90;;;;;;6242535;23;20043;-36
2023/06/28 08:08:09;;;;;;;10.02;6.40;;;17.20;99.90;;;;;;6242910;23;20012;-34
2023/06/28 08:10:35;;;;;;;10.52;6.60;;;17.10;99.90;;;;;;6242043;23;20186;-35
2023/06/28 08:13:01;;;;;;;12.02;6.05;;;17.10;99.90;;;;;;6242051;23;20018;-33
2023/06/28 08:15:26;;;;;;;9.70;6.18;;;17.10;99.90;;;;;;6242158;23;20012;-35
2023/06/28 08:17:52;;;;;;;9.82;6.50;;;17.00;99.90;;;;;;6241351;23;20016;-33
2023/06/28 08:20:18;;;;;;;8.65;5.97;;;17.00;99.90;;;;;;6241369;23;20012;-33
2023/06/28 08:22:44;;;;;;;9.45;6.00;;;17.00;99.90;;;;;;6240823;23;20016;-35
2023/06/28 08:25:09;;;;;;;11.43;6.10;;;17.00;99.90;;;;;;6241009;23;20016;-36
2023/06/28 08:27:36;;;;;;;17.98;6.22;;;17.10;99.90;;;;;;6240933;23;20024;-35
2023/06/28 08:30:01;;;;;;;10.32;6.03;;;17.10;99.90;;;;;;6241189;23;20015;-36
2023/06/28 08:32:27;;;;;;;9.82;5.70;;;17.10;99.90;;;;;;6214151;23;20435;-35
2023/06/28 08:34:53;;;;;;;11.60;6.80;;;17.20;99.90;;;;;;6240390;23;20015;-36
2023/06/28 08:37:18;;;;;;;9.80;6.65;;;17.20;99.90;;;;;;6241111;23;20016;-34
2023/06/28 08:39:44;;;;;;;10.48;5.38;;;17.20;99.90;;;;;;6241440;23;20012;-34
2023/06/28 08:42:10;;;;;;;9.05;6.70;;;17.30;99.90;;;;;;6240521;23;20019;-39
2023/06/28 08:44:38;;;;;;;16.70;7.22;;;17.30;99.90;;;;;;6240778;23;20122;-37
2023/06/28 08:47:05;;;;;;;11.52;7.20;;;17.30;99.90;;;;;;6240967;23;20057;-36
2023/06/28 08:49:31;;;;;;;11.18;7.22;;;17.40;99.90;;;;;;6241184;23;20502;-34
2023/06/28 08:51:57;;;;;;;10.88;6.85;;;17.40;99.90;;;;;;6240495;23;20008;-34
2023/06/28 08:54:27;;;;;;;12.35;7.43;;;17.50;99.90;;;;;;6240813;23;20010;-35
2023/06/28 08:56:56;;;;;;;13.07;7.68;;;17.50;99.90;;;;;;6240728;23;20062;-35
2023/06/28 08:59:22;;;;;;;9.30;7.60;;;17.50;99.90;;;;;;6240742;23;20091;-35
2023/06/28 09:01:50;;;;;;;13.23;7.55;;;17.50;99.90;;;;;;6212996;23;20094;-35
2023/06/28 09:04:17;;;;;;;10.23;7.18;;;17.60;99.90;;;;;;6240544;23;20020;-36
2023/06/28 09:06:44;;;;;;;10.48;6.88;;;17.70;99.90;;;;;;6240155;23;20460;-33
2023/06/28 09:09:10;;;;;;;14.50;8.10;;;17.70;99.90;;;;;;6240692;23;20471;-35
2023/06/28 09:11:37;;;;;;;11.98;7.43;;;17.80;99.90;;;;;;6239954;23;20012;-36
2023/06/28 09:14:02;;;;;;;12.52;7.47;;;17.80;99.90;;;;;;6240879;23;20336;-35
2023/06/28 09:16:29;;;;;;;12.82;7.90;;;17.90;99.90;;;;;;6240160;23;20012;-36
2023/06/28 09:18:55;;;;;;;11.68;7.78;;;18.00;99.90;;;;;;6237628;23;20008;-35
2023/06/28 09:21:28;;;;;;;14.80;8.35;;;18.00;99.90;;;;;;6239852;23;20050;-35
2023/06/28 09:23:54;;;;;;;12.68;8.23;;;18.00;99.90;;;;;;6240542;23;20448;-33
2023/06/28 09:26:21;;;;;;;12.45;8.85;;;18.10;99.90;;;;;;6213320;23;20451;-35
2023/06/28 09:28:48;;;;;;;12.30;8.52;;;18.10;99.90;;;;;;6240199;23;20043;-35
2023/06/28 09:31:18;;;;;;;12.40;9.25;;;18.10;99.90;;;;;;6240471;23;20015;-33
2023/06/28 09:33:44;;;;;;;13.93;9.38;;;18.10;99.90;;;;;;6240168;23;20339;-33
2023/06/28 09:36:10;;;;;;;16.63;9.98;;;18.10;99.90;;;;;;6239803;23;20012;-33
2023/06/28 09:38:44;;;;;;;15.98;9.88;;;18.00;99.90;;;;;;6240014;23;20161;-34
2023/06/28 09:41:09;;;;;;;19.58;10.57;;;18.00;99.90;;;;;;6212505;23;20662;-37
2023/06/28 09:43:37;;;;;;;16.65;10.40;;;18.00;99.90;;;;;;6239991;23;20160;-34
2023/06/28 09:46:16;;;;;;;20.30;10.77;;;18.10;99.90;;;;;;6240362;23;20013;-36
2023/06/28 09:48:44;;;;;;;16.25;10.02;;;18.10;99.90;;;;;;6240340;23;20036;-32
2023/06/28 09:51:11;;;;;;;13.38;10.15;;;18.10;99.90;;;;;;6213402;23;20039;-35
2023/06/28 09:53:53;;;;;;;17.38;11.45;;;18.10;99.90;;;;;;6240666;23;20004;-36
2023/06/28 09:56:19;;;;;;;18.60;11.45;;;18.10;99.90;;;;;;6240462;23;20012;-34
2023/06/28 09:58:47;;;;;;;17.98;11.50;;;18.20;99.90;;;;;;6240475;23;20016;-35
2023/06/28 10:01:15;;;;;;;16.70;11.32;;;18.30;99.90;;;;;;6239444;23;20141;-35
2023/06/28 10:03:42;;;;;;;20.40;12.07;;;18.40;99.90;;;;;;6239794;23;20008;-37
2023/06/28 10:06:10;;;;;;;19.33;12.20;;;18.40;99.90;;;;;;6241008;23;20016;-36
2023/06/28 10:08:36;;;;;;;19.40;11.90;;;18.40;99.90;;;;;;6240857;23;20209;-36
2023/06/28 10:11:05;;;;;;;18.52;12.60;;;18.40;99.90;;;;;;6239785;23;20008;-37
2023/06/28 10:13:31;;;;;;;17.58;12.18;;;18.40;99.90;;;;;;6240266;23;20027;-35
2023/06/28 10:16:07;;;;;;;19.13;13.30;;;18.30;99.90;;;;;;6238612;23;20016;-35
2023/06/28 10:18:34;;;;;;;16.73;11.98;;;18.30;99.90;;;;;;6239000;23;20047;-36
2023/06/28 10:21:00;;;;;;;16.45;12.82;;;18.20;99.90;;;;;;6232074;23;20020;-37
2023/06/28 10:23:26;;;;;;;16.92;12.65;;;18.30;99.90;;;;;;6235380;23;20027;-36
2023/06/28 10:25:53;;;;;;;16.23;12.50;;;18.20;99.90;;;;;;6236650;23;20012;-35
2023/06/28 10:28:20;;;;;;;16.83;13.30;;;18.30;99.90;;;;;;6210795;23;20016;-33
2023/06/28 10:30:47;;;;;;;18.45;12.85;;;18.30;99.90;;;;;;6237797;23;20004;-37
2023/06/28 10:33:17;;;;;;;17.58;12.73;;;18.20;99.90;;;;;;6237811;23;20015;-36
2023/06/28 10:35:44;;;;;;;20.50;13.82;;;18.20;99.90;;;;;;6241335;23;20020;-37
2023/06/28 10:38:10;;;;;;;18.77;13.45;;;18.20;99.90;;;;;;6215166;23;20015;-37
2023/06/28 10:40:36;;;;;;;18.38;12.68;;;18.20;99.90;;;;;;6241052;23;20115;-33
2023/06/28 10:43:02;;;;;;;14.68;10.93;;;18.10;99.90;;;;;;6241394;23;20020;-35
2023/06/28 10:45:35;;;;;;;15.15;12.77;;;18.20;99.90;;;;;;6241727;23;20016;-36
2023/06/28 10:48:01;;;;;;;16.60;12.05;;;18.10;99.90;;;;;;6241833;23;20012;-37
2023/06/28 10:50:27;;;;;;;17.17;13.07;;;18.20;99.90;;;;;;6241760;23;20443;-36
2023/06/28 10:52:57;;;;;;;15.35;11.65;;;18.20;99.90;;;;;;6213897;23;20009;-38
2023/06/28 10:55:34;;;;;;;16.30;12.45;;;18.20;99.90;;;;;;6241324;23;20038;-37
2023/06/28 10:58:11;;;;;;;14.23;12.27;;;18.20;99.90;;;;;;6241065;23;20383;-36
2023/06/28 11:00:37;;;;;;;14.75;12.50;;;18.20;99.90;;;;;;6240679;23;20016;-38
2023/06/28 11:03:06;;;;;;;15.43;12.55;;;18.20;99.90;;;;;;6240101;23;20008;-37
2023/06/28 11:05:55;;;;;;;14.60;12.30;;;18.10;99.90;;;;;;6240640;23;20494;-35
2023/06/28 11:08:34;;;;;;;14.13;12.55;;;18.20;99.90;;;;;;6224809;23;20019;-35
2023/06/28 11:11:01;;;;;;;13.95;12.48;;;18.20;99.90;;;;;;6214048;23;20016;-37
2023/06/28 11:13:30;;;;;;;13.85;11.85;;;18.20;99.90;;;;;;6240696;23;20008;-37
2023/06/28 11:16:11;;;;;;;16.73;12.20;;;18.30;99.90;;;;;;6241042;23;20016;-37
2023/06/28 11:18:37;;;;;;;14.32;11.90;;;18.30;99.90;;;;;;6240230;23;20016;-38
2023/06/28 11:21:04;;;;;;;15.35;12.15;;;18.40;99.90;;;;;;6239516;23;20020;-37
2023/06/28 11:23:39;;;;;;;14.30;12.65;;;18.40;99.90;;;;;;6238160;23;20038;-39
2023/06/28 11:26:06;;;;;;;12.85;11.45;;;18.50;99.90;;;;;;6211283;23;20031;-36
2023/06/28 11:28:34;;;;;;;14.63;11.95;;;18.50;99.90;;;;;;6238083;23;20008;-38
2023/06/28 11:31:13;;;;;;;13.70;12.23;;;18.50;99.90;;;;;;6238673;23;20388;-38
2023/06/28 11:33:43;;;;;;;13.20;11.85;;;18.60;99.90;;;;;;6238909;23;20009;-33
2023/06/28 11:36:11;;;;;;;13.45;11.98;;;18.60;99.90;;;;;;6238133;23;20462;-36
2023/06/28 11:38:37;;;;;;;14.05;11.98;;;18.70;99.90;;;;;;6238055;23;20012;-36
2023/06/28 11:41:04;;;;;;;13.77;12.18;;;18.70;99.90;;;;;;6238525;23;20052;-34
2023/06/28 11:43:30;;;;;;;12.55;11.35;;;18.80;99.90;;;;;;6237326;23;20028;-37
2023/06/28 11:45:56;;;;;;;12.95;11.50;;;18.80;99.90;;;;;;6239319;23;20016;-37
2023/06/28 11:48:22;;;;;;;12.82;11.40;;;18.70;99.90;;;;;;6239515;23;20004;-37
2023/06/28 11:51:01;;;;;;;13.38;11.60;;;18.70;99.90;;;;;;6239009;23;20462;-37
2023/06/28 11:53:29;;;;;;;14.25;11.65;;;18.80;99.90;;;;;;6239092;23;20019;-39
2023/06/28 11:55:55;;;;;;;20.02;12.25;;;18.80;99.90;;;;;;6238718;23;20023;-39
2023/06/28 11:58:35;;;;;;;12.98;11.57;;;18.90;99.90;;;;;;6239158;23;20111;-37
2023/06/28 12:01:02;;;;;;;14.60;11.80;;;18.90;99.90;;;;;;6239569;23;20245;-37
2023/06/28 12:03:32;;;;;;;12.70;11.15;;;18.90;99.90;;;;;;6239561;23;20015;-34
2023/06/28 12:06:00;;;;;;;14.07;11.63;;;19.00;99.90;;;;;;6240327;23;20012;-36
2023/06/28 12:08:31;;;;;;;14.07;12.57;;;19.00;99.90;;;;;;6238146;23;20016;-36
2023/06/28 12:10:57;;;;;;;12.73;11.25;;;19.10;99.90;;;;;;6239793;23;20016;-38
2023/06/28 12:13:23;;;;;;;14.27;11.95;;;19.10;99.90;;;;;;6239008;23;20004;-36
2023/06/28 12:15:49;;;;;;;13.00;11.63;;;19.10;99.90;;;;;;6241558;23;20012;-40
2023/06/28 12:18:15;;;;;;;13.43;12.05;;;19.10;99.90;;;;;;6241574;23;20568;-39
2023/06/28 12:20:41;;;;;;;13.48;12.13;;;19.10;99.90;;;;;;6240822;23;20048;-35
2023/06/28 12:23:13;;;;;;;14.18;12.68;;;19.10;99.90;;;;;;6241354;23;20070;-40
2023/06/28 12:25:43;;;;;;;14.80;13.25;;;19.10;99.90;;;;;;6214755;23;20394;-39
2023/06/28 12:28:12;;;;;;;15.15;13.70;;;19.10;99.90;;;;;;6241604;23;20404;-37
2023/06/28 12:30:38;;;;;;;14.85;13.43;;;19.10;99.90;;;;;;6241236;23;20020;-39
2023/06/28 12:33:08;;;;;;;15.60;13.68;;;19.10;99.90;;;;;;6240428;23;20062;-37
2023/06/28 12:35:34;;;;;;;16.00;14.27;;;19.30;99.90;;;;;;6240897;23;20348;-36
2023/06/28 12:38:02;;;;;;;16.92;15.10;;;19.30;99.90;;;;;;6242094;23;20023;-40
2023/06/28 12:40:29;;;;;;;17.38;14.65;;;19.50;99.90;;;;;;6242621;23;20016;-36
2023/06/28 12:43:17;;;;;;;15.02;13.52;;;19.50;99.90;;;;;;6241788;23;20055;-36